Ashford, Alabama
Current Conditions -  °F | °C
As of 5:53 AM on Thursday 29 Jan 2015 (Local Time) from KDHN Reporting Station
Clear Clear  
Wind Chill: 33°   Ceiling: Unl
Heat Index: 37°   Visibility: 8mi
Dew Point: 32°   Wind: 5mph
Humidity: 82%   Direction: 120°ESE
Pressure: 30.34"   Gusts: NA
Location:  31.18°N, 85.24°W
Report Text: KDHN 291153Z 12004KT 8SM CLR 03/00 A3034 RMK AO2 SLP275 T00280000 10056 20011 51005
Loading
Personal Weather Stations






























Interactive Weather Map New forecast layout! Learn more

10-Day Weather Forecast

Advertisements
Track Severe Weather on mobile